createdAt,value
2018-12-07T00:00:40.784Z,0
2018-12-07T00:01:48.867Z,0
2018-12-07T00:02:56.928Z,0
2018-12-07T00:04:04.988Z,0
2018-12-07T00:05:13.039Z,0
2018-12-07T00:06:21.082Z,0
2018-12-07T00:07:29.167Z,0
2018-12-07T00:08:37.369Z,0
2018-12-07T00:09:45.287Z,0
2018-12-07T00:10:53.343Z,0
2018-12-07T00:12:01.389Z,0
2018-12-07T00:13:09.486Z,0
2018-12-07T00:14:17.537Z,0
2018-12-07T00:15:25.591Z,0
2018-12-07T00:16:33.660Z,0
2018-12-07T00:17:41.730Z,0
2018-12-07T00:18:49.786Z,0
2018-12-07T00:19:57.845Z,0
2018-12-07T00:21:05.901Z,0
2018-12-07T00:22:13.990Z,0
2018-12-07T00:23:22.033Z,0
2018-12-07T00:24:30.103Z,0
2018-12-07T00:25:38.172Z,0
2018-12-07T00:26:46.212Z,0
2018-12-07T00:27:54.271Z,0
2018-12-07T00:29:02.348Z,0
2018-12-07T00:30:10.389Z,0
2018-12-07T00:31:18.455Z,0
2018-12-07T00:32:26.522Z,0
2018-12-07T00:33:34.588Z,0
2018-12-07T00:34:42.642Z,0
2018-12-07T00:35:50.691Z,0
2018-12-07T00:36:58.747Z,0
2018-12-07T00:38:06.801Z,0
2018-12-07T00:39:14.878Z,0
2018-12-07T00:40:22.943Z,0
2018-12-07T00:41:30.982Z,0
2018-12-07T00:42:39.063Z,0
2018-12-07T00:43:47.114Z,0
2018-12-07T00:44:55.212Z,0
2018-12-07T00:46:03.238Z,0
2018-12-07T00:47:11.295Z,0
2018-12-07T00:48:19.368Z,0
2018-12-07T00:49:27.430Z,0
2018-12-07T00:50:35.505Z,0
2018-12-07T00:51:43.551Z,0
2018-12-07T00:52:51.616Z,0
2018-12-07T00:53:59.674Z,0
2018-12-07T00:55:07.727Z,0
2018-12-07T00:56:15.798Z,0
2018-12-07T00:57:23.869Z,0
2018-12-07T00:58:31.921Z,0
2018-12-07T00:59:39.980Z,0
2018-12-07T01:00:48.055Z,0
2018-12-07T01:01:56.116Z,0
2018-12-07T01:03:04.173Z,0
2018-12-07T01:04:12.229Z,0
2018-12-07T01:05:20.297Z,0
2018-12-07T01:06:28.356Z,0
2018-12-07T01:07:36.416Z,0
2018-12-07T01:08:44.477Z,0
2018-12-07T01:09:52.534Z,0
2018-12-07T01:11:00.593Z,0
2018-12-07T01:12:08.667Z,0
2018-12-07T01:13:16.754Z,0
2018-12-07T01:14:24.776Z,0
2018-12-07T01:15:32.841Z,0
2018-12-07T01:16:40.885Z,0
2018-12-07T01:17:48.972Z,0
2018-12-07T01:18:57.029Z,0
2018-12-07T01:20:05.084Z,0
2018-12-07T01:21:13.145Z,0
2018-12-07T01:22:21.195Z,0
2018-12-07T01:23:29.357Z,0
2018-12-07T01:24:37.418Z,0
2018-12-07T01:25:45.387Z,0
2018-12-07T01:26:53.455Z,0
2018-12-07T01:28:01.494Z,0
2018-12-07T01:29:09.562Z,0
2018-12-07T01:30:17.641Z,0
2018-12-07T01:31:25.706Z,0
2018-12-07T01:32:33.766Z,0
2018-12-07T01:33:41.825Z,0
2018-12-07T01:34:49.964Z,0
2018-12-07T01:35:57.949Z,0
2018-12-07T01:37:05.996Z,0
2018-12-07T01:38:14.066Z,0
2018-12-07T01:39:22.123Z,0
2018-12-07T01:40:30.202Z,0
2018-12-07T01:41:38.247Z,0
2018-12-07T01:42:46.300Z,0
2018-12-07T01:43:54.375Z,0
2018-12-07T01:45:02.434Z,0
2018-12-07T01:46:10.509Z,0
2018-12-07T01:47:18.616Z,0
2018-12-07T01:48:26.617Z,0
2018-12-07T01:49:34.660Z,0
2018-12-07T01:50:42.739Z,0
2018-12-07T01:51:50.814Z,0
2018-12-07T01:52:58.861Z,0
2018-12-07T01:54:06.921Z,0
2018-12-07T01:55:14.991Z,0
2018-12-07T01:56:23.051Z,0
2018-12-07T01:57:31.090Z,0
2018-12-07T01:58:39.173Z,0
2018-12-07T01:59:47.232Z,0
2018-12-07T02:00:55.293Z,0
2018-12-07T02:02:03.351Z,0
2018-12-07T02:03:11.397Z,0
2018-12-07T02:04:19.470Z,0
2018-12-07T02:05:27.540Z,0
2018-12-07T02:06:35.572Z,0
2018-12-07T02:07:43.659Z,0
2018-12-07T02:08:51.701Z,0
2018-12-07T02:09:59.771Z,0
2018-12-07T02:11:07.843Z,0
2018-12-07T02:12:15.908Z,0
2018-12-07T02:13:23.958Z,0
2018-12-07T02:14:32.025Z,0
2018-12-07T02:15:40.088Z,0
2018-12-07T02:16:48.237Z,0
2018-12-07T02:17:56.210Z,0
2018-12-07T02:19:04.259Z,0
2018-12-07T02:20:12.328Z,0
2018-12-07T02:21:20.395Z,0
2018-12-07T02:22:28.443Z,0
2018-12-07T02:23:36.532Z,0
2018-12-07T02:24:44.568Z,0
2018-12-07T02:25:52.635Z,0
2018-12-07T02:27:00.842Z,0
2018-12-07T02:28:08.766Z,0
2018-12-07T02:29:16.817Z,0
2018-12-07T02:30:24.866Z,0
2018-12-07T02:31:32.940Z,0
2018-12-07T02:32:40.974Z,0
2018-12-07T02:33:49.075Z,0
2018-12-07T02:34:57.124Z,0
2018-12-07T02:36:05.192Z,0
2018-12-07T02:37:13.245Z,0
2018-12-07T02:38:21.329Z,0
2018-12-07T02:39:29.375Z,0
2018-12-07T02:40:37.444Z,0
2018-12-07T02:41:45.486Z,0
2018-12-07T02:42:53.534Z,0
2018-12-07T02:44:01.697Z,0
2018-12-07T02:45:09.668Z,0
2018-12-07T02:46:17.745Z,0
2018-12-07T02:47:25.795Z,0
2018-12-07T02:48:33.872Z,0
2018-12-07T02:49:41.904Z,0
2018-12-07T02:50:49.979Z,0
2018-12-07T02:51:58.036Z,0
2018-12-07T02:53:06.107Z,0
2018-12-07T02:54:14.157Z,0
2018-12-07T02:55:22.218Z,0
2018-12-07T02:56:30.289Z,0
2018-12-07T02:57:38.341Z,0
2018-12-07T02:58:46.415Z,0
2018-12-07T02:59:54.485Z,0
2018-12-07T03:01:02.529Z,0
2018-12-07T03:02:10.583Z,0
2018-12-07T03:03:18.679Z,0
2018-12-07T03:04:26.705Z,0
2018-12-07T03:05:34.768Z,0
2018-12-07T03:06:42.831Z,0
2018-12-07T03:07:50.899Z,0
2018-12-07T03:08:58.962Z,0
2018-12-07T03:10:07.010Z,0
2018-12-07T03:11:15.093Z,0
2018-12-07T03:12:23.137Z,0
2018-12-07T03:13:31.179Z,0
2018-12-07T03:14:39.277Z,0
2018-12-07T03:15:47.322Z,0
2018-12-07T03:16:55.378Z,0
2018-12-07T03:18:03.444Z,0
2018-12-07T03:19:11.465Z,0
2018-12-07T03:20:19.562Z,0
2018-12-07T03:21:27.629Z,0
2018-12-07T03:22:35.717Z,0
2018-12-07T03:23:43.756Z,0
2018-12-07T03:24:51.816Z,0
2018-12-07T03:25:59.869Z,0
2018-12-07T03:27:07.949Z,0
2018-12-07T03:28:15.995Z,0
2018-12-07T03:29:24.053Z,0
2018-12-07T03:30:32.115Z,0
2018-12-07T03:31:40.174Z,0
2018-12-07T03:32:48.238Z,0
2018-12-07T03:33:56.397Z,0
2018-12-07T03:35:04.354Z,0
2018-12-07T03:36:12.417Z,0
2018-12-07T03:37:20.479Z,0
2018-12-07T03:38:28.647Z,0
2018-12-07T03:39:36.610Z,0
2018-12-07T03:40:44.669Z,0
2018-12-07T03:41:52.729Z,0
2018-12-07T03:43:00.770Z,0
2018-12-07T03:44:08.859Z,0
2018-12-07T03:45:16.914Z,0
2018-12-07T03:46:24.976Z,0
2018-12-07T03:47:33.041Z,0
2018-12-07T03:48:41.079Z,0
2018-12-07T03:49:49.155Z,0
2018-12-07T03:50:57.218Z,0
2018-12-07T03:52:05.270Z,0
2018-12-07T03:53:13.340Z,0
2018-12-07T03:54:21.472Z,0
2018-12-07T03:55:29.466Z,0
2018-12-07T03:56:37.520Z,0
2018-12-07T03:57:45.584Z,0
2018-12-07T03:58:53.651Z,0
2018-12-07T04:00:01.717Z,0
2018-12-07T04:01:09.772Z,0
2018-12-07T04:02:17.822Z,0
2018-12-07T04:03:25.887Z,0
2018-12-07T04:04:33.950Z,0
2018-12-07T04:05:42.017Z,0
2018-12-07T04:06:50.078Z,0
2018-12-07T04:07:58.145Z,0
2018-12-07T04:09:06.207Z,0
2018-12-07T04:10:14.266Z,0
2018-12-07T04:11:22.332Z,0
2018-12-07T04:12:30.424Z,0
2018-12-07T04:13:38.452Z,0
2018-12-07T04:14:46.603Z,0
2018-12-07T04:15:54.551Z,0
2018-12-07T04:17:02.612Z,0
2018-12-07T04:18:10.665Z,0
2018-12-07T04:19:18.753Z,0
2018-12-07T04:20:26.808Z,0
2018-12-07T04:21:34.872Z,0
2018-12-07T04:22:42.915Z,0
2018-12-07T04:23:50.985Z,0
2018-12-07T04:24:59.042Z,0
2018-12-07T04:26:07.108Z,0
2018-12-07T04:27:15.173Z,0
2018-12-07T04:28:23.237Z,0
2018-12-07T04:29:31.280Z,0
2018-12-07T04:30:39.356Z,0
2018-12-07T04:31:47.428Z,0
2018-12-07T04:32:55.473Z,0
2018-12-07T04:34:03.542Z,0
2018-12-07T04:35:11.583Z,0
2018-12-07T04:36:19.663Z,0
2018-12-07T04:37:27.736Z,0
2018-12-07T04:38:35.773Z,0
2018-12-07T04:39:43.841Z,0
2018-12-07T04:40:51.922Z,0
2018-12-07T04:41:59.977Z,0
2018-12-07T04:43:08.032Z,0
2018-12-07T04:44:16.098Z,0
2018-12-07T04:45:24.159Z,0
2018-12-07T04:46:32.226Z,0
2018-12-07T04:47:40.283Z,0
2018-12-07T04:48:48.326Z,0
2018-12-07T04:49:56.398Z,0
2018-12-07T04:51:04.457Z,0
2018-12-07T04:52:12.514Z,0
2018-12-07T04:53:20.582Z,0
2018-12-07T04:54:28.639Z,0
2018-12-07T04:55:36.693Z,0
2018-12-07T04:56:44.770Z,0
2018-12-07T04:57:52.839Z,0
2018-12-07T04:59:00.870Z,0
2018-12-07T05:00:08.950Z,0
2018-12-07T05:01:17.009Z,0
2018-12-07T05:02:25.108Z,0
2018-12-07T05:03:33.113Z,0
2018-12-07T05:04:41.170Z,0
2018-12-07T05:05:49.262Z,0
2018-12-07T05:06:57.316Z,0
2018-12-07T05:08:05.396Z,0
2018-12-07T05:09:13.434Z,0
2018-12-07T05:10:21.468Z,0
2018-12-07T05:11:29.558Z,0
2018-12-07T05:12:37.621Z,0
2018-12-07T05:13:45.684Z,0
2018-12-07T05:14:53.736Z,0
2018-12-07T05:16:01.792Z,0
2018-12-07T05:17:09.877Z,0
2018-12-07T05:18:17.921Z,0
2018-12-07T05:19:25.984Z,0
2018-12-07T05:20:34.047Z,0
2018-12-07T05:21:42.111Z,0
2018-12-07T05:22:50.157Z,0
2018-12-07T05:23:58.230Z,0
2018-12-07T05:25:06.287Z,0
2018-12-07T05:26:14.348Z,0
2018-12-07T05:27:22.409Z,0
2018-12-07T05:28:30.472Z,0
2018-12-07T05:29:38.538Z,0
2018-12-07T05:30:46.585Z,0
2018-12-07T05:31:54.667Z,0
2018-12-07T05:33:02.744Z,0
2018-12-07T05:34:10.750Z,0
2018-12-07T05:35:18.846Z,0
2018-12-07T05:36:26.902Z,0
2018-12-07T05:37:34.959Z,0
2018-12-07T05:38:43.036Z,0
2018-12-07T05:39:51.510Z,0
2018-12-07T05:40:59.157Z,0
2018-12-07T05:42:07.210Z,0
2018-12-07T05:43:15.270Z,0
2018-12-07T05:44:23.327Z,0
2018-12-07T05:45:31.375Z,0
2018-12-07T05:46:39.455Z,0
2018-12-07T05:47:47.510Z,0
2018-12-07T05:48:55.590Z,0
2018-12-07T05:50:03.636Z,0
2018-12-07T05:51:11.680Z,0
2018-12-07T05:52:19.754Z,0
2018-12-07T05:53:27.823Z,0
2018-12-07T05:54:35.881Z,0
2018-12-07T05:55:43.954Z,0
2018-12-07T05:56:52.009Z,0
2018-12-07T05:58:00.071Z,0
2018-12-07T05:59:08.135Z,0
2018-12-07T06:00:16.181Z,0
2018-12-07T06:01:24.278Z,0
2018-12-07T06:02:32.307Z,4
2018-12-07T06:03:40.381Z,0
2018-12-07T06:04:48.713Z,0
2018-12-07T06:05:58.030Z,0
2018-12-07T06:07:04.582Z,0
2018-12-07T06:08:12.601Z,0
2018-12-07T06:09:20.705Z,0
2018-12-07T06:10:28.730Z,0
2018-12-07T06:11:37.301Z,0
2018-12-07T06:12:44.917Z,0
2018-12-07T06:13:53.126Z,0
2018-12-07T06:15:00.960Z,0
2018-12-07T06:16:09.585Z,0
2018-12-07T06:17:17.098Z,0
2018-12-07T06:18:25.170Z,0
2018-12-07T06:19:33.243Z,0
2018-12-07T06:20:41.276Z,0
2018-12-07T06:21:49.361Z,0
2018-12-07T06:22:57.409Z,0
2018-12-07T06:24:05.953Z,0
2018-12-07T06:25:13.590Z,0
2018-12-07T06:26:21.564Z,0
2018-12-07T06:27:29.636Z,0
2018-12-07T06:28:37.707Z,0
2018-12-07T06:29:45.814Z,0
2018-12-07T06:30:53.834Z,0
2018-12-07T06:32:01.889Z,0
2018-12-07T06:33:09.953Z,4
2018-12-07T06:34:18.035Z,4
2018-12-07T06:35:26.080Z,0
2018-12-07T06:36:34.155Z,4
2018-12-07T06:37:42.207Z,8
2018-12-07T06:38:50.266Z,8
2018-12-07T06:39:58.320Z,12
2018-12-07T06:41:06.399Z,8
2018-12-07T06:42:14.438Z,12
2018-12-07T06:43:22.503Z,16
2018-12-07T06:44:30.582Z,16
2018-12-07T06:45:38.626Z,20
2018-12-07T06:46:46.689Z,20
2018-12-07T06:47:54.757Z,28
2018-12-07T06:49:02.808Z,32
2018-12-07T06:50:10.885Z,36
2018-12-07T06:51:18.951Z,40
2018-12-07T06:52:27.004Z,48
2018-12-07T06:53:35.061Z,52
2018-12-07T06:54:43.111Z,60
2018-12-07T06:55:51.255Z,60
2018-12-07T06:56:59.237Z,68
2018-12-07T06:58:07.309Z,72
2018-12-07T06:59:15.366Z,52
2018-12-07T07:00:23.417Z,56
2018-12-07T07:01:31.463Z,76
2018-12-07T07:02:39.538Z,68
2018-12-07T07:03:47.609Z,68
2018-12-07T07:04:55.685Z,92
2018-12-07T07:06:03.838Z,100
2018-12-07T07:07:11.782Z,68
2018-12-07T07:08:19.859Z,56
2018-12-07T07:09:27.922Z,60
2018-12-07T07:10:35.994Z,72
2018-12-07T07:11:44.027Z,80
2018-12-07T07:12:52.103Z,100
2018-12-07T07:14:00.161Z,100
2018-12-07T07:15:08.215Z,112
2018-12-07T07:16:22.866Z,124
2018-12-07T07:17:24.337Z,116
2018-12-07T07:18:32.402Z,148
2018-12-07T07:19:40.472Z,124
2018-12-07T07:20:48.524Z,136
2018-12-07T07:21:56.591Z,156
2018-12-07T07:23:04.651Z,168
2018-12-07T07:24:12.717Z,196
2018-12-07T07:25:20.763Z,212
2018-12-07T07:26:28.835Z,240
2018-12-07T07:27:36.900Z,292
2018-12-07T07:28:44.954Z,280
2018-12-07T07:29:53.029Z,252
2018-12-07T07:31:01.068Z,280
2018-12-07T07:32:09.135Z,276
2018-12-07T07:33:17.197Z,348
2018-12-07T07:34:25.269Z,428
2018-12-07T07:35:33.359Z,448
2018-12-07T07:36:41.358Z,368
2018-12-07T07:37:49.455Z,448
2018-12-07T07:38:57.515Z,480
2018-12-07T07:40:05.568Z,460
2018-12-07T07:41:13.635Z,356
2018-12-07T07:42:21.682Z,372
2018-12-07T07:43:29.749Z,372
2018-12-07T07:44:37.808Z,328
2018-12-07T07:45:45.876Z,328
2018-12-07T07:46:53.930Z,368
2018-12-07T07:48:01.995Z,340
2018-12-07T07:49:10.059Z,384
2018-12-07T07:50:18.107Z,448
2018-12-07T07:51:26.187Z,568
2018-12-07T07:52:34.250Z,648
2018-12-07T07:53:42.302Z,568
2018-12-07T07:54:50.409Z,520
2018-12-07T07:55:58.418Z,548
2018-12-07T07:57:06.489Z,624
2018-12-07T07:58:14.577Z,616
2018-12-07T07:59:22.603Z,612
2018-12-07T08:00:30.678Z,580
2018-12-07T08:01:38.731Z,668
2018-12-07T08:02:46.801Z,836
2018-12-07T08:03:54.852Z,856
2018-12-07T08:05:02.934Z,800
2018-12-07T08:06:10.960Z,836
2018-12-07T08:07:19.144Z,760
2018-12-07T08:08:27.092Z,688
2018-12-07T08:09:35.168Z,668
2018-12-07T08:10:43.226Z,752
2018-12-07T08:11:51.276Z,928
2018-12-07T08:12:59.337Z,1032
2018-12-07T08:14:07.411Z,1168
2018-12-07T08:15:15.465Z,968
2018-12-07T08:16:23.515Z,792
2018-12-07T08:17:31.582Z,736
2018-12-07T08:18:39.646Z,728
2018-12-07T08:19:47.732Z,840
2018-12-07T08:20:55.787Z,800
2018-12-07T08:22:03.849Z,880
2018-12-07T08:23:14.784Z,1092
2018-12-07T08:24:19.968Z,1136
2018-12-07T08:25:28.027Z,1008
2018-12-07T08:26:36.622Z,1152
2018-12-07T08:27:44.740Z,1400
2018-12-07T08:28:52.744Z,1448
2018-12-07T08:30:00.268Z,1380
2018-12-07T08:31:08.364Z,1652
2018-12-07T08:32:16.397Z,1552
2018-12-07T08:33:24.458Z,1648
2018-12-07T08:34:32.521Z,1496
2018-12-07T08:35:40.568Z,1404
2018-12-07T08:36:48.626Z,1764
2018-12-07T08:37:56.705Z,1496
2018-12-07T08:39:04.760Z,1628
2018-12-07T08:40:12.818Z,1732
2018-12-07T08:41:20.874Z,1568
2018-12-07T08:42:28.951Z,1604
2018-12-07T08:43:37.009Z,2380
2018-12-07T08:44:45.070Z,1460
2018-12-07T08:45:53.125Z,1352
2018-12-07T08:47:01.183Z,1632
2018-12-07T08:48:09.253Z,1232
2018-12-07T08:49:17.318Z,1296
2018-12-07T08:50:25.386Z,1464
2018-12-07T08:51:33.450Z,1144
2018-12-07T08:52:41.483Z,1108
2018-12-07T08:53:49.566Z,1080
2018-12-07T08:54:57.627Z,1152
2018-12-07T08:56:05.697Z,1344
2018-12-07T08:57:13.751Z,1332
2018-12-07T08:58:21.798Z,1500
2018-12-07T08:59:29.868Z,1428
2018-12-07T09:00:37.954Z,2136
2018-12-07T09:01:45.996Z,1984
2018-12-07T09:02:54.064Z,2028
2018-12-07T09:04:02.115Z,2152
2018-12-07T09:05:10.183Z,2100
2018-12-07T09:06:18.237Z,2016
2018-12-07T09:07:26.331Z,1956
2018-12-07T09:08:34.384Z,1928
2018-12-07T09:09:42.424Z,2428
2018-12-07T09:10:50.501Z,2424
2018-12-07T09:11:58.560Z,2776
2018-12-07T09:13:06.615Z,2720
2018-12-07T09:14:14.684Z,2180
2018-12-07T09:15:22.761Z,2276
2018-12-07T09:16:30.790Z,1968
2018-12-07T09:17:38.872Z,1980
2018-12-07T09:18:46.918Z,2276
2018-12-07T09:19:54.990Z,2140
2018-12-07T09:21:03.047Z,2280
2018-12-07T09:22:11.101Z,2236
2018-12-07T09:23:19.206Z,2256
2018-12-07T09:24:27.237Z,1876
2018-12-07T09:25:35.294Z,2132
2018-12-07T09:26:43.370Z,2288
2018-12-07T09:27:51.403Z,2608
2018-12-07T09:28:59.501Z,2660
2018-12-07T09:30:07.627Z,2320
2018-12-07T09:31:15.604Z,1912
2018-12-07T09:32:23.669Z,2288
2018-12-07T09:33:31.719Z,2056
2018-12-07T09:34:39.800Z,2088
2018-12-07T09:35:47.859Z,1960
2018-12-07T09:36:55.915Z,1668
2018-12-07T09:38:03.994Z,1512
2018-12-07T09:39:12.033Z,1584
2018-12-07T09:40:20.102Z,1840
2018-12-07T09:41:28.180Z,1980
2018-12-07T09:42:36.243Z,1888
2018-12-07T09:43:44.289Z,1880
2018-12-07T09:44:52.366Z,2168
2018-12-07T09:46:00.430Z,2292
2018-12-07T09:47:08.482Z,2148
2018-12-07T09:48:16.525Z,2036
2018-12-07T09:49:24.627Z,2372
2018-12-07T09:50:32.667Z,2672
2018-12-07T09:51:40.711Z,2912
2018-12-07T09:52:48.790Z,2460
2018-12-07T09:53:56.852Z,2360
2018-12-07T09:55:04.907Z,2172
2018-12-07T09:56:12.980Z,2632
2018-12-07T09:57:21.010Z,2136
2018-12-07T09:58:29.129Z,1808
2018-12-07T09:59:37.173Z,1652
2018-12-07T10:00:45.229Z,1792
2018-12-07T10:01:53.289Z,2268
2018-12-07T10:03:01.314Z,2136
2018-12-07T10:04:09.410Z,1912
2018-12-07T10:05:17.482Z,1800
2018-12-07T10:06:25.536Z,1892
2018-12-07T10:07:23.636Z,1804
2018-12-07T10:08:31.685Z,1976
2018-12-07T10:09:39.763Z,2004
2018-12-07T10:10:47.821Z,2096
2018-12-07T10:11:55.874Z,2036
2018-12-07T10:13:07.830Z,2912
2018-12-07T10:14:12.016Z,2388
2018-12-07T10:15:20.101Z,2576
2018-12-07T10:16:28.132Z,2844
2018-12-07T10:17:36.210Z,2980
2018-12-07T10:18:44.261Z,3384
2018-12-07T10:19:52.332Z,3780
2018-12-07T10:21:00.403Z,3964
2018-12-07T10:22:08.453Z,4204
2018-12-07T10:23:16.509Z,4208
2018-12-07T10:24:24.566Z,4248
2018-12-07T10:25:32.628Z,4248
2018-12-07T10:26:40.688Z,4076
2018-12-07T10:27:48.758Z,4468
2018-12-07T10:28:56.805Z,4552
2018-12-07T10:30:04.891Z,4644
2018-12-07T10:31:12.931Z,4672
2018-12-07T10:32:20.986Z,4648
2018-12-07T10:33:29.100Z,4748
2018-12-07T10:34:37.126Z,4784
2018-12-07T10:35:45.191Z,4740
2018-12-07T10:36:53.274Z,4848
2018-12-07T10:38:01.294Z,4948
2018-12-07T10:39:09.388Z,4996
2018-12-07T10:40:17.446Z,5112
2018-12-07T10:41:25.507Z,5112
2018-12-07T10:42:33.576Z,4696
2018-12-07T10:43:41.617Z,5212
2018-12-07T10:44:49.684Z,5224
2018-12-07T10:45:57.764Z,5716
2018-12-07T10:47:05.820Z,5908
2018-12-07T10:48:13.897Z,6640
2018-12-07T10:49:21.949Z,6172
2018-12-07T10:50:30.010Z,6736
2018-12-07T10:51:38.073Z,6748
2018-12-07T10:52:46.154Z,6048
2018-12-07T10:53:54.213Z,5424
2018-12-07T10:55:02.251Z,6736
2018-12-07T10:56:10.345Z,4920
2018-12-07T10:57:18.398Z,3740
2018-12-07T10:58:26.453Z,3516
2018-12-07T10:59:34.517Z,2940
2018-12-07T11:00:42.585Z,2928
2018-12-07T11:01:50.649Z,2928
2018-12-07T11:02:58.712Z,2776
2018-12-07T11:04:06.772Z,2760
2018-12-07T11:05:14.826Z,2548
2018-12-07T11:06:22.896Z,2928
2018-12-07T11:07:30.948Z,3020
2018-12-07T11:08:39.024Z,2348
2018-12-07T11:09:47.097Z,2672
2018-12-07T11:10:55.146Z,3280
2018-12-07T11:12:03.213Z,3324
2018-12-07T11:13:11.257Z,3568
2018-12-07T11:14:19.340Z,3960
2018-12-07T11:15:27.403Z,4600
2018-12-07T11:16:35.471Z,4692
2018-12-07T11:17:43.529Z,5228
2018-12-07T11:18:51.577Z,5808
2018-12-07T11:19:59.718Z,5776
2018-12-07T11:21:07.734Z,5084
2018-12-07T11:22:15.808Z,4600
2018-12-07T11:23:23.833Z,4872
2018-12-07T11:24:31.905Z,4808
2018-12-07T11:25:39.972Z,3772
2018-12-07T11:26:48.049Z,5436
2018-12-07T11:27:56.113Z,5540
2018-12-07T11:29:04.160Z,4764
2018-12-07T11:30:12.219Z,3976
2018-12-07T11:31:20.298Z,3184
2018-12-07T11:32:28.351Z,2912
2018-12-07T11:33:36.421Z,3932
2018-12-07T11:34:44.481Z,3864
2018-12-07T11:35:52.550Z,4576
2018-12-07T11:37:00.599Z,5964
2018-12-07T11:38:08.666Z,6856
2018-12-07T11:39:16.723Z,6648
2018-12-07T11:40:24.826Z,6732
2018-12-07T11:41:32.854Z,6712
2018-12-07T11:42:40.925Z,6172
2018-12-07T11:43:48.986Z,4920
2018-12-07T11:44:57.042Z,5080
2018-12-07T11:46:05.119Z,5884
2018-12-07T11:47:13.191Z,6004
2018-12-07T11:48:21.218Z,6268
2018-12-07T11:49:29.310Z,6560
2018-12-07T11:50:37.355Z,6440
2018-12-07T11:51:45.442Z,6088
2018-12-07T11:52:53.481Z,6548
2018-12-07T11:54:01.537Z,6832
2018-12-07T11:55:09.612Z,7204
2018-12-07T11:56:17.701Z,6356
2018-12-07T11:57:25.741Z,6012
2018-12-07T11:58:34.516Z,5280
2018-12-07T11:59:41.865Z,4408
2018-12-07T12:00:49.949Z,4452
2018-12-07T12:01:58.011Z,4448
2018-12-07T12:03:06.061Z,4740
2018-12-07T12:04:14.132Z,4804
2018-12-07T12:05:22.201Z,5000
2018-12-07T12:06:30.264Z,4768
2018-12-07T12:07:38.328Z,4736
2018-12-07T12:08:46.384Z,4468
2018-12-07T12:09:54.447Z,4484
2018-12-07T12:11:02.527Z,4436
2018-12-07T12:12:10.580Z,4848
2018-12-07T12:13:18.638Z,5292
2018-12-07T12:14:26.696Z,5440
2018-12-07T12:15:34.802Z,5220
2018-12-07T12:16:42.837Z,4892
2018-12-07T12:17:50.883Z,4652
2018-12-07T12:18:58.957Z,3920
2018-12-07T12:20:07.020Z,3956
2018-12-07T12:21:15.109Z,3692
2018-12-07T12:22:23.143Z,3432
2018-12-07T12:23:31.195Z,2916
2018-12-07T12:24:39.270Z,2556
2018-12-07T12:25:47.350Z,2836
2018-12-07T12:26:55.413Z,3200
2018-12-07T12:28:03.473Z,3476
2018-12-07T12:29:11.504Z,4128
2018-12-07T12:30:19.598Z,4148
2018-12-07T12:31:27.655Z,3716
2018-12-07T12:32:35.724Z,3124
2018-12-07T12:33:43.797Z,2540
2018-12-07T12:34:51.848Z,2088
2018-12-07T12:35:59.910Z,1796
2018-12-07T12:37:07.976Z,1704
2018-12-07T12:38:16.041Z,1792
2018-12-07T12:39:24.101Z,1476
2018-12-07T12:40:32.166Z,1432
2018-12-07T12:41:46.664Z,1656
2018-12-07T12:42:48.298Z,1844
2018-12-07T12:43:56.374Z,2404
2018-12-07T12:45:04.421Z,2716
2018-12-07T12:46:12.482Z,3008
2018-12-07T12:47:20.579Z,3504
2018-12-07T12:48:28.621Z,2868
2018-12-07T12:49:36.675Z,2604
2018-12-07T12:50:44.740Z,2380
2018-12-07T12:51:52.804Z,2108
2018-12-07T12:53:00.849Z,2432
2018-12-07T12:54:08.922Z,2692
2018-12-07T12:55:17.006Z,3012
2018-12-07T12:56:25.066Z,3100
2018-12-07T12:57:33.114Z,3284
2018-12-07T12:58:41.162Z,3696
2018-12-07T12:59:49.251Z,3588
2018-12-07T13:00:57.304Z,3160
2018-12-07T13:02:05.378Z,3016
2018-12-07T13:03:13.435Z,3168
2018-12-07T13:04:21.510Z,3320
2018-12-07T13:05:29.569Z,3248
2018-12-07T13:06:37.618Z,2928
2018-12-07T13:07:45.691Z,2892
2018-12-07T13:08:53.762Z,3280
2018-12-07T13:10:01.821Z,3552
2018-12-07T13:11:09.874Z,3700
2018-12-07T13:12:17.948Z,3868
2018-12-07T13:13:26.030Z,3820
2018-12-07T13:14:34.084Z,3720
2018-12-07T13:15:42.131Z,3564
2018-12-07T13:16:50.206Z,3536
2018-12-07T13:17:58.261Z,3660
2018-12-07T13:19:06.321Z,4240
2018-12-07T13:20:14.390Z,4708
2018-12-07T13:21:22.459Z,5168
2018-12-07T13:22:30.509Z,5204
2018-12-07T13:23:38.582Z,5160
2018-12-07T13:24:46.635Z,4968
2018-12-07T13:25:54.706Z,5260
2018-12-07T13:27:02.775Z,5384
2018-12-07T13:28:10.831Z,5804
2018-12-07T13:29:18.896Z,6580
2018-12-07T13:30:26.970Z,6748
2018-12-07T13:31:35.027Z,7280
2018-12-07T13:32:43.089Z,6652
2018-12-07T13:33:51.122Z,6488
2018-12-07T13:34:59.215Z,5500
2018-12-07T13:36:07.279Z,5288
2018-12-07T13:37:15.332Z,5108
2018-12-07T13:38:23.404Z,5204
2018-12-07T13:39:31.445Z,4860
2018-12-07T13:40:39.647Z,4172
2018-12-07T13:41:50.273Z,3600
2018-12-07T13:42:55.767Z,4052
2018-12-07T13:44:03.818Z,3456
2018-12-07T13:45:11.945Z,3172
2018-12-07T13:46:19.979Z,3064
2018-12-07T13:47:28.151Z,2772
2018-12-07T13:48:36.111Z,3116
2018-12-07T13:49:44.267Z,2756
2018-12-07T13:50:52.260Z,2508
2018-12-07T13:52:00.202Z,2424
2018-12-07T13:53:08.227Z,2240
2018-12-07T13:54:16.402Z,2064
2018-12-07T13:55:24.535Z,1612
2018-12-07T13:56:32.632Z,1644
2018-12-07T13:57:40.512Z,1344
2018-12-07T13:58:48.676Z,1596
2018-12-07T13:59:56.768Z,1932
2018-12-07T14:01:04.811Z,1712
2018-12-07T14:02:12.758Z,1756
2018-12-07T14:03:20.839Z,1812
2018-12-07T14:04:28.948Z,1848
2018-12-07T14:05:37.039Z,1688
2018-12-07T14:06:45.130Z,1820
2018-12-07T14:07:53.117Z,1784
2018-12-07T14:09:01.151Z,2080
2018-12-07T14:10:09.184Z,2012
2018-12-07T14:11:17.352Z,2088
2018-12-07T14:12:25.353Z,1960
2018-12-07T14:13:33.378Z,1856
2018-12-07T14:14:41.427Z,1708
2018-12-07T14:15:49.685Z,1724
2018-12-07T14:16:57.649Z,1684
2018-12-07T14:18:05.933Z,1708
2018-12-07T14:19:13.719Z,2036
2018-12-07T14:20:21.945Z,2196
2018-12-07T14:21:29.827Z,1572
2018-12-07T14:22:38.016Z,2180
2018-12-07T14:23:46.078Z,2020
2018-12-07T14:24:54.005Z,2164
2018-12-07T14:26:02.197Z,1904
2018-12-07T14:27:10.172Z,2128
2018-12-07T14:28:18.218Z,1824
2018-12-07T14:29:26.266Z,2008
2018-12-07T14:30:35.968Z,1896
2018-12-07T14:31:42.483Z,1852
2018-12-07T14:32:50.577Z,1720
2018-12-07T14:33:58.635Z,1812
2018-12-07T14:35:06.570Z,1784
2018-12-07T14:36:14.791Z,1532
2018-12-07T14:37:22.884Z,1440
2018-12-07T14:38:30.846Z,1504
2018-12-07T14:39:38.822Z,1168
2018-12-07T14:40:47.072Z,1416
2018-12-07T14:41:55.003Z,1516
2018-12-07T14:43:03.170Z,1396
2018-12-07T14:44:11.085Z,1364
2018-12-07T14:45:19.255Z,1316
2018-12-07T14:46:27.415Z,1300
2018-12-07T14:47:35.284Z,1328
2018-12-07T14:48:43.418Z,1132
2018-12-07T14:49:51.355Z,1008
2018-12-07T14:50:59.478Z,1020
2018-12-07T14:52:07.502Z,864
2018-12-07T14:53:15.717Z,820
2018-12-07T14:54:23.810Z,784
2018-12-07T14:55:31.900Z,812
2018-12-07T14:56:39.948Z,768
2018-12-07T14:57:47.949Z,752
2018-12-07T14:58:55.966Z,772
2018-12-07T15:00:03.955Z,736
2018-12-07T15:01:12.079Z,712
2018-12-07T15:02:20.074Z,728
2018-12-07T15:03:28.124Z,732
2018-12-07T15:04:36.425Z,768
2018-12-07T15:05:44.274Z,732
2018-12-07T15:06:52.525Z,684
2018-12-07T15:08:00.517Z,620
2018-12-07T15:09:08.689Z,568
2018-12-07T15:10:16.516Z,572
2018-12-07T15:11:24.826Z,464
2018-12-07T15:12:32.794Z,504
2018-12-07T15:13:40.740Z,500
2018-12-07T15:14:49.065Z,472
2018-12-07T15:15:57.008Z,416
2018-12-07T15:17:04.972Z,396
2018-12-07T15:18:12.987Z,400
2018-12-07T15:19:21.116Z,348
2018-12-07T15:20:30.094Z,344
2018-12-07T15:21:37.148Z,324
2018-12-07T15:22:45.230Z,268
2018-12-07T15:23:53.478Z,260
2018-12-07T15:25:01.390Z,240
2018-12-07T15:26:09.632Z,192
2018-12-07T15:27:17.435Z,188
2018-12-07T15:28:25.716Z,152
2018-12-07T15:29:33.593Z,144
2018-12-07T15:30:41.647Z,140
2018-12-07T15:31:49.679Z,124
2018-12-07T15:32:57.946Z,120
2018-12-07T15:34:05.901Z,104
2018-12-07T15:35:13.888Z,92
2018-12-07T15:36:21.951Z,100
2018-12-07T15:37:30.280Z,92
2018-12-07T15:38:38.258Z,80
2018-12-07T15:39:46.328Z,72
2018-12-07T15:40:54.179Z,60
2018-12-07T15:42:02.248Z,56
2018-12-07T15:43:10.443Z,44
2018-12-07T15:44:18.417Z,32
2018-12-07T15:45:26.442Z,28
2018-12-07T15:46:34.498Z,24
2018-12-07T15:47:42.671Z,20
2018-12-07T15:48:50.648Z,20
2018-12-07T15:49:58.851Z,20
2018-12-07T15:51:06.730Z,16
2018-12-07T15:52:14.906Z,12